Time;durP1;ratioP1;P1;durP2;ratioP2;P2;SDS_P1;SDS_P2;PMS_P1;PMS_P2;Temp;Humidity;BMP_temperature;BMP_pressure;BME280_temperature;BME280_humidity;BME280_pressure;Samples;Min_cycle;Max_cycle;Signal;HPM_P1;HPM_P2
2021/03/08 00:00:32;;;;;;;18.53;11.20;;;-1.30;99.90;;;;;;5015718;28;20216;-73
2021/03/08 00:02:58;;;;;;;19.67;10.50;;;-1.40;99.90;;;;;;5020530;28;20771;-73
2021/03/08 00:05:24;;;;;;;16.80;11.57;;;-1.40;99.90;;;;;;5018076;28;20457;-75
2021/03/08 00:07:50;;;;;;;22.13;11.00;;;-1.40;99.90;;;;;;5021810;28;20404;-74
2021/03/08 00:10:20;;;;;;;17.20;10.60;;;-1.40;99.90;;;;;;5023412;28;20189;-73
2021/03/08 00:12:47;;;;;;;22.40;11.47;;;-1.40;99.90;;;;;;5019901;28;20462;-73
2021/03/08 00:15:14;;;;;;;23.30;11.70;;;-1.50;99.90;;;;;;5022675;28;20854;-74
2021/03/08 00:17:40;;;;;;;17.63;10.87;;;-1.50;99.90;;;;;;5019591;28;20904;-73
2021/03/08 00:20:08;;;;;;;19.17;11.00;;;-1.50;99.90;;;;;;5022564;28;20475;-73
2021/03/08 00:22:34;;;;;;;17.60;10.87;;;-1.50;99.90;;;;;;5018729;28;20434;-73
2021/03/08 00:25:00;;;;;;;18.10;11.80;;;-1.60;99.90;;;;;;5020531;28;20484;-72
2021/03/08 00:27:25;;;;;;;18.20;11.73;;;-1.60;99.90;;;;;;5021128;28;20451;-73
2021/03/08 00:29:51;;;;;;;19.37;11.20;;;-1.60;99.90;;;;;;5020706;28;20187;-72
2021/03/08 00:32:16;;;;;;;17.67;11.37;;;-1.60;99.90;;;;;;5022155;28;20617;-73
2021/03/08 00:34:42;;;;;;;19.00;11.50;;;-1.60;99.90;;;;;;5019450;28;20212;-75
2021/03/08 00:37:07;;;;;;;18.83;11.53;;;-1.60;99.90;;;;;;5015405;28;20199;-73
2021/03/08 00:39:33;;;;;;;20.10;12.70;;;-1.70;99.90;;;;;;5022042;28;20231;-73
2021/03/08 00:41:59;;;;;;;20.40;11.67;;;-1.70;99.90;;;;;;5021228;28;20610;-72
2021/03/08 00:44:25;;;;;;;18.93;12.37;;;-1.60;99.90;;;;;;5019153;28;20251;-72
2021/03/08 00:46:51;;;;;;;18.57;10.93;;;-1.60;99.90;;;;;;5023972;28;20416;-73
2021/03/08 00:49:16;;;;;;;19.50;10.93;;;-1.60;99.90;;;;;;5028517;28;20958;-72
2021/03/08 00:51:42;;;;;;;16.37;10.80;;;-1.70;99.90;;;;;;5025757;28;20187;-73
2021/03/08 00:54:07;;;;;;;21.70;13.20;;;-1.70;99.90;;;;;;5019233;28;20200;-71
2021/03/08 00:56:33;;;;;;;21.93;12.57;;;-1.70;99.90;;;;;;5025169;28;20556;-72
2021/03/08 00:58:59;;;;;;;16.87;11.63;;;-1.70;99.90;;;;;;5027860;28;20259;-72
2021/03/08 01:01:24;;;;;;;21.93;11.87;;;-1.70;99.90;;;;;;5025991;28;20258;-72
2021/03/08 01:03:51;;;;;;;17.63;11.23;;;-1.70;99.90;;;;;;5026552;28;20275;-73
2021/03/08 01:06:16;;;;;;;13.70;9.83;;;-1.70;99.90;;;;;;5028204;28;20452;-72
2021/03/08 01:08:42;;;;;;;15.90;10.57;;;-1.70;99.90;;;;;;5025486;28;20195;-72
2021/03/08 01:11:07;;;;;;;16.83;11.87;;;-1.80;99.90;;;;;;5028822;28;20348;-72
2021/03/08 01:13:33;;;;;;;18.60;11.70;;;-1.80;99.90;;;;;;5026171;28;20587;-73
2021/03/08 01:15:58;;;;;;;16.07;12.23;;;-1.90;99.90;;;;;;5027523;28;20204;-74
2021/03/08 01:18:24;;;;;;;16.20;11.93;;;-1.90;99.90;;;;;;5027358;28;20198;-72
2021/03/08 01:20:50;;;;;;;23.60;12.27;;;-1.90;99.90;;;;;;5026432;28;20213;-72
2021/03/08 01:23:16;;;;;;;14.33;10.80;;;-1.90;99.90;;;;;;5028230;28;20184;-72
2021/03/08 01:25:42;;;;;;;14.50;9.57;;;-1.90;99.90;;;;;;5025270;28;20942;-73
2021/03/08 01:28:08;;;;;;;14.97;9.80;;;-2.00;99.90;;;;;;5021393;28;20202;-72
2021/03/08 01:30:40;;;;;;;15.70;10.87;;;-2.00;99.90;;;;;;5026882;28;20418;-72
2021/03/08 01:33:06;;;;;;;12.90;9.40;;;-2.10;99.90;;;;;;5025572;28;20404;-72
2021/03/08 01:35:32;;;;;;;15.83;9.93;;;-2.00;99.90;;;;;;5027909;28;20521;-74
2021/03/08 01:37:58;;;;;;;13.73;10.20;;;-2.10;99.90;;;;;;5026511;28;20489;-73
2021/03/08 01:40:26;;;;;;;22.37;11.97;;;-2.10;99.90;;;;;;5026582;28;20556;-72
2021/03/08 01:42:53;;;;;;;19.53;9.97;;;-2.10;99.90;;;;;;5027182;28;20509;-73
2021/03/08 01:45:20;;;;;;;22.13;10.77;;;-2.10;99.90;;;;;;5025774;28;20858;-73
2021/03/08 01:47:47;;;;;;;19.03;11.60;;;-2.20;99.90;;;;;;5028144;28;20489;-72
2021/03/08 01:50:37;;;;;;;14.63;9.83;;;-2.20;99.90;;;;;;5025167;28;20426;-75
2021/03/08 01:53:05;;;;;;;17.30;10.50;;;-2.30;99.90;;;;;;5020565;28;20456;-73
2021/03/08 01:55:31;;;;;;;16.90;10.83;;;-2.30;99.90;;;;;;5027334;28;20469;-72
2021/03/08 01:57:57;;;;;;;12.17;9.23;;;-2.30;99.90;;;;;;5024160;28;20482;-73
2021/03/08 02:00:25;;;;;;;11.47;9.10;;;-2.30;99.90;;;;;;5023141;28;20454;-72
2021/03/08 02:02:51;;;;;;;14.60;9.70;;;-2.30;99.90;;;;;;5024227;28;20508;-73
2021/03/08 02:05:21;;;;;;;13.43;9.30;;;-2.30;99.90;;;;;;5022274;28;20457;-72
2021/03/08 02:07:47;;;;;;;16.10;10.10;;;-2.30;99.90;;;;;;5024652;28;20416;-72
2021/03/08 02:10:14;;;;;;;18.53;9.17;;;-2.30;99.90;;;;;;5021722;28;20439;-72
2021/03/08 02:13:02;;;;;;;18.67;11.13;;;-2.30;99.90;;;;;;5025211;28;20186;-74
2021/03/08 02:16:08;;;;;;;14.20;9.83;;;-2.30;99.90;;;;;;5022536;28;20480;-73
2021/03/08 02:18:55;;;;;;;20.57;8.87;;;-2.30;99.90;;;;;;5024276;28;20422;-73
2021/03/08 02:21:24;;;;;;;16.60;10.40;;;-2.20;99.90;;;;;;5020215;28;20473;-73
2021/03/08 02:24:24;;;;;;;18.43;10.73;;;-2.20;99.90;;;;;;5022629;28;20427;-72
2021/03/08 02:27:03;;;;;;;15.77;10.33;;;-2.30;99.90;;;;;;5020220;28;20417;-74
2021/03/08 02:30:07;;;;;;;21.87;11.43;;;-2.30;99.90;;;;;;5022738;28;20404;-73
2021/03/08 02:32:41;;;;;;;18.10;10.87;;;-2.30;99.90;;;;;;5023412;28;20429;-73
2021/03/08 02:35:13;;;;;;;15.33;11.53;;;-2.30;99.90;;;;;;5021115;28;20469;-72
2021/03/08 02:37:49;;;;;;;13.07;9.13;;;-2.30;99.90;;;;;;5024907;28;20834;-73
2021/03/08 02:40:18;;;;;;;19.17;10.10;;;-2.30;99.90;;;;;;5018224;28;20462;-72
2021/03/08 02:42:50;;;;;;;15.33;9.90;;;-2.30;99.90;;;;;;5024543;28;20421;-73
2021/03/08 02:45:17;;;;;;;16.63;10.20;;;-2.40;99.90;;;;;;5021322;28;20950;-73
2021/03/08 02:47:47;;;;;;;18.17;10.73;;;-2.40;99.90;;;;;;5023331;28;20499;-72
2021/03/08 02:50:14;;;;;;;16.53;10.83;;;-2.50;99.90;;;;;;5021008;28;20872;-72
2021/03/08 02:52:49;;;;;;;17.20;11.47;;;-2.40;99.90;;;;;;5024759;28;20436;-72
2021/03/08 02:55:17;;;;;;;17.90;10.00;;;-2.50;99.90;;;;;;5017787;28;20459;-73
2021/03/08 02:57:44;;;;;;;20.60;12.00;;;-2.50;99.90;;;;;;5024601;28;20579;-72
2021/03/08 03:00:12;;;;;;;19.97;9.93;;;-2.50;99.90;;;;;;5016874;28;20947;-73
2021/03/08 03:02:40;;;;;;;15.60;10.10;;;-2.50;99.90;;;;;;5020882;28;20424;-72
2021/03/08 03:05:09;;;;;;;20.50;11.10;;;-2.60;99.90;;;;;;5023615;28;20437;-73
2021/03/08 03:07:38;;;;;;;16.53;11.77;;;-2.60;99.90;;;;;;5021235;28;20422;-72
2021/03/08 03:10:05;;;;;;;18.47;9.77;;;-2.60;99.90;;;;;;5022946;28;20429;-72
2021/03/08 03:12:34;;;;;;;20.40;12.00;;;-2.60;99.90;;;;;;5021527;28;20428;-73
2021/03/08 03:15:01;;;;;;;19.20;10.80;;;-2.60;99.90;;;;;;5022791;28;20450;-74
2021/03/08 03:17:28;;;;;;;15.47;10.10;;;-2.70;99.90;;;;;;5022135;28;20939;-72
2021/03/08 03:19:57;;;;;;;15.77;10.00;;;-2.70;99.90;;;;;;5021839;28;20431;-73
2021/03/08 03:22:25;;;;;;;16.20;10.47;;;-2.70;99.90;;;;;;5023958;28;20421;-72
2021/03/08 03:24:54;;;;;;;18.77;10.97;;;-2.70;99.90;;;;;;5023593;28;20507;-73
2021/03/08 03:27:22;;;;;;;15.80;10.53;;;-2.70;99.90;;;;;;5021820;28;20423;-72
2021/03/08 03:29:49;;;;;;;16.07;9.43;;;-2.80;99.90;;;;;;5023617;28;20414;-73
2021/03/08 03:32:15;;;;;;;18.17;11.93;;;-2.80;99.90;;;;;;5020362;28;20515;-74
2021/03/08 03:34:43;;;;;;;20.67;11.50;;;-2.80;99.90;;;;;;5023253;28;20539;-71
2021/03/08 03:37:09;;;;;;;21.20;11.60;;;-2.90;99.90;;;;;;5016091;28;20176;-72
2021/03/08 03:39:34;;;;;;;18.67;10.97;;;-2.90;99.90;;;;;;5023137;28;20949;-72
2021/03/08 03:42:00;;;;;;;14.60;10.73;;;-2.90;99.90;;;;;;5021037;28;20440;-72
2021/03/08 03:44:25;;;;;;;17.10;10.87;;;-3.00;99.90;;;;;;5021646;28;20183;-74
2021/03/08 03:46:51;;;;;;;18.40;11.13;;;-3.00;99.90;;;;;;5022434;28;20677;-70
2021/03/08 03:49:18;;;;;;;17.37;10.50;;;-3.00;99.90;;;;;;5020117;28;20261;-74
2021/03/08 03:51:44;;;;;;;16.03;10.27;;;-3.00;99.90;;;;;;5023450;28;20187;-72
2021/03/08 03:54:10;;;;;;;16.83;10.33;;;-3.00;99.90;;;;;;5019537;28;20429;-69
2021/03/08 03:56:44;;;;;;;22.90;12.17;;;-3.00;99.90;;;;;;5023035;28;20556;-72
2021/03/08 03:59:28;;;;;;;18.43;10.70;;;-3.00;99.90;;;;;;5015737;28;20426;-72
2021/03/08 04:02:00;;;;;;;19.87;11.80;;;-3.00;99.90;;;;;;5017873;28;20445;-72
2021/03/08 04:04:34;;;;;;;20.57;11.27;;;-3.00;99.90;;;;;;5021287;28;20397;-72
2021/03/08 04:07:03;;;;;;;16.57;11.50;;;-3.10;99.90;;;;;;5021864;28;20418;-72
2021/03/08 04:09:30;;;;;;;17.47;10.67;;;-3.10;99.90;;;;;;5020863;28;20802;-72
2021/03/08 04:11:58;;;;;;;21.23;11.50;;;-3.10;99.90;;;;;;5021216;28;20433;-72
2021/03/08 04:14:25;;;;;;;14.03;9.23;;;-3.20;99.90;;;;;;5021322;28;20432;-72
2021/03/08 04:16:55;;;;;;;16.77;10.73;;;-3.10;99.90;;;;;;5020604;28;20392;-70
2021/03/08 04:19:24;;;;;;;24.00;11.37;;;-3.10;99.90;;;;;;5021930;28;20425;-72
2021/03/08 04:21:54;;;;;;;19.40;13.50;;;-3.20;99.90;;;;;;5019781;28;20461;-72
2021/03/08 04:24:20;;;;;;;18.03;11.70;;;-3.20;99.90;;;;;;5020455;28;20872;-72
2021/03/08 04:26:47;;;;;;;21.30;11.40;;;-3.30;99.90;;;;;;5019654;28;20427;-72
2021/03/08 04:29:13;;;;;;;14.20;10.60;;;-3.30;99.90;;;;;;5022648;28;20870;-73
2021/03/08 04:31:39;;;;;;;19.37;10.93;;;-3.30;99.90;;;;;;5015378;28;20517;-73
2021/03/08 04:34:06;;;;;;;18.47;11.20;;;-3.30;99.90;;;;;;5022109;28;20504;-73
2021/03/08 04:36:32;;;;;;;24.43;12.40;;;-3.30;99.90;;;;;;5019943;28;20213;-72
2021/03/08 04:38:59;;;;;;;18.33;11.87;;;-3.30;99.90;;;;;;5021294;28;20428;-72
2021/03/08 04:41:27;;;;;;;20.67;12.50;;;-3.40;99.90;;;;;;5020832;28;20893;-72
2021/03/08 04:43:54;;;;;;;23.83;12.73;;;-3.40;99.90;;;;;;5019270;28;20441;-72
2021/03/08 04:46:21;;;;;;;25.37;13.70;;;-3.40;99.90;;;;;;5021301;28;20492;-73
2021/03/08 04:48:47;;;;;;;24.07;15.17;;;-3.40;99.90;;;;;;5019573;28;20425;-72
2021/03/08 04:51:13;;;;;;;18.40;11.27;;;-3.40;99.90;;;;;;5022303;28;20495;-72
2021/03/08 04:53:40;;;;;;;18.63;10.90;;;-3.40;99.90;;;;;;5015075;28;20506;-72
2021/03/08 04:56:06;;;;;;;22.43;12.10;;;-3.50;99.90;;;;;;5021922;28;20795;-71
2021/03/08 04:58:33;;;;;;;19.20;11.47;;;-3.50;99.90;;;;;;5019896;28;20401;-72
2021/03/08 05:00:59;;;;;;;13.90;10.10;;;-3.50;99.90;;;;;;5021184;28;20805;-72
2021/03/08 05:03:26;;;;;;;18.77;12.10;;;-3.50;99.90;;;;;;5020641;28;20441;-74
2021/03/08 05:05:53;;;;;;;22.57;11.57;;;-3.50;99.90;;;;;;5019977;28;20669;-72
2021/03/08 05:08:20;;;;;;;20.27;12.73;;;-3.50;99.90;;;;;;5021538;28;20432;-72
2021/03/08 05:10:47;;;;;;;18.33;11.97;;;-3.50;99.90;;;;;;5019418;28;20418;-72
2021/03/08 05:13:14;;;;;;;18.47;12.60;;;-3.50;99.90;;;;;;5022085;28;20444;-72
2021/03/08 05:15:40;;;;;;;21.87;12.33;;;-3.50;99.90;;;;;;5015000;28;20438;-74
2021/03/08 05:18:07;;;;;;;22.17;12.43;;;-3.60;99.90;;;;;;5021807;28;20505;-72
2021/03/08 05:20:36;;;;;;;20.27;12.87;;;-3.60;99.90;;;;;;5019558;28;20464;-72
2021/03/08 05:23:02;;;;;;;17.90;10.23;;;-3.60;99.90;;;;;;5021324;28;20427;-73
2021/03/08 05:25:28;;;;;;;17.37;12.13;;;-3.60;99.90;;;;;;5020066;28;20884;-72
2021/03/08 05:27:55;;;;;;;20.03;11.53;;;-3.70;99.90;;;;;;5020445;28;20421;-74
2021/03/08 05:30:22;;;;;;;24.13;12.67;;;-3.70;99.90;;;;;;5021251;28;20422;-73
2021/03/08 05:33:07;;;;;;;21.03;12.13;;;-3.70;99.90;;;;;;5021482;28;20418;-73
2021/03/08 05:35:35;;;;;;;17.77;11.33;;;-3.70;99.90;;;;;;5023129;28;20445;-74
2021/03/08 05:38:02;;;;;;;21.53;12.47;;;-3.60;99.90;;;;;;5024794;28;20467;-74
2021/03/08 05:40:38;;;;;;;18.87;11.10;;;-3.70;99.90;;;;;;5023582;28;20563;-73
2021/03/08 05:43:11;;;;;;;18.53;11.37;;;-3.70;99.90;;;;;;5025235;28;20420;-73
2021/03/08 05:45:50;;;;;;;32.87;14.50;;;-3.70;99.90;;;;;;5022434;28;20912;-74
2021/03/08 05:48:23;;;;;;;24.00;13.87;;;-3.70;99.90;;;;;;5018065;28;20429;-70
2021/03/08 05:51:27;;;;;;;22.40;13.60;;;-3.60;99.90;;;;;;5024657;28;20420;-70
2021/03/08 05:54:28;;;;;;;24.53;14.20;;;-3.60;99.90;;;;;;5018776;28;20448;-70
2021/03/08 05:56:56;;;;;;;19.47;12.30;;;-3.60;99.90;;;;;;5027291;28;20632;-69
2021/03/08 05:59:53;;;;;;;24.80;14.33;;;-3.50;99.90;;;;;;5023193;28;20985;-71
2021/03/08 06:02:43;;;;;;;25.40;13.83;;;-3.50;99.90;;;;;;4995817;28;20777;-71
2021/03/08 06:05:59;;;;;;;20.60;12.87;;;-3.50;99.90;;;;;;5021709;28;20488;-70
2021/03/08 06:08:52;;;;;;;20.20;11.77;;;-3.50;99.90;;;;;;5023590;28;20402;-71
2021/03/08 06:11:19;;;;;;;25.17;12.87;;;-3.40;99.90;;;;;;5024620;28;20414;-71
2021/03/08 06:13:58;;;;;;;19.33;12.87;;;-3.20;99.90;;;;;;5021856;28;20435;-70
2021/03/08 06:16:36;;;;;;;20.33;12.17;;;-2.90;99.90;;;;;;5023399;28;20454;-70
2021/03/08 06:19:05;;;;;;;16.80;11.53;;;-2.10;99.90;;;;;;5024043;28;20517;-70
2021/03/08 06:21:35;;;;;;;19.53;11.00;;;-1.30;99.90;;;;;;5022554;28;20441;-70
2021/03/08 06:24:03;;;;;;;27.93;12.67;;;-0.50;99.90;;;;;;5024033;28;20946;-71
2021/03/08 06:26:30;;;;;;;17.77;10.33;;;0.40;99.90;;;;;;5022469;28;20525;-70
2021/03/08 06:28:57;;;;;;;17.20;11.53;;;1.10;99.90;;;;;;5023108;28;20414;-70
2021/03/08 06:31:24;;;;;;;16.47;11.30;;;1.60;99.90;;;;;;5023299;28;20426;-70
2021/03/08 06:33:49;;;;;;;17.40;10.57;;;1.50;99.90;;;;;;5022425;28;20425;-70
2021/03/08 06:36:18;;;;;;;22.97;13.23;;;1.80;99.90;;;;;;5024404;28;20437;-70
2021/03/08 06:38:43;;;;;;;22.03;13.40;;;2.10;99.90;;;;;;5021272;28;20173;-70
2021/03/08 06:41:09;;;;;;;20.20;12.70;;;2.70;99.90;;;;;;5024527;28;20875;-70
2021/03/08 06:43:36;;;;;;;20.47;13.27;;;3.70;99.90;;;;;;5021170;28;20171;-70
2021/03/08 06:46:03;;;;;;;17.13;12.70;;;4.60;99.90;;;;;;5023119;28;20326;-70
2021/03/08 06:48:28;;;;;;;20.33;13.37;;;5.50;99.90;;;;;;5022337;28;20425;-70
2021/03/08 06:51:16;;;;;;;19.73;13.00;;;6.00;99.90;;;;;;5021442;28;20420;-70
2021/03/08 06:53:45;;;;;;;16.70;12.53;;;6.10;99.90;;;;;;5017699;28;20581;-70
2021/03/08 06:56:24;;;;;;;18.00;13.10;;;6.10;99.90;;;;;;5024136;28;20451;-70
2021/03/08 06:59:13;;;;;;;17.40;13.37;;;7.40;99.90;;;;;;5016980;28;20421;-71
2021/03/08 07:01:42;;;;;;;14.30;12.80;;;7.80;99.90;;;;;;5026477;28;20561;-70
2021/03/08 07:04:18;;;;;;;18.53;13.77;;;8.10;99.90;;;;;;5023004;28;20457;-71
2021/03/08 07:07:01;;;;;;;20.97;14.13;;;8.50;99.90;;;;;;5021414;28;20408;-71
2021/03/08 07:09:29;;;;;;;16.90;12.87;;;9.10;99.90;;;;;;5022181;28;20417;-71
2021/03/08 07:12:25;;;;;;;15.70;12.80;;;8.90;99.90;;;;;;5020994;28;20961;-71
2021/03/08 07:15:01;;;;;;;18.80;12.70;;;9.20;99.90;;;;;;5011911;28;20535;-70
2021/03/08 07:17:27;;;;;;;18.40;14.30;;;9.20;99.90;;;;;;5022037;28;20452;-72
2021/03/08 07:19:53;;;;;;;15.80;14.10;;;9.40;99.90;;;;;;5021527;28;20479;-70
2021/03/08 07:22:36;;;;;;;25.13;14.53;;;9.90;99.90;;;;;;5020195;28;20314;-70
2021/03/08 07:25:06;;;;;;;15.90;13.17;;;9.90;99.90;;;;;;5023542;28;20544;-72
2021/03/08 07:27:41;;;;;;;17.23;13.53;;;10.10;99.90;;;;;;5022554;28;20421;-70
2021/03/08 07:30:08;;;;;;;18.30;14.40;;;10.20;99.90;;;;;;5020319;28;20414;-74
2021/03/08 07:32:34;;;;;;;16.83;14.50;;;10.50;99.90;;;;;;5020558;28;20429;-71
2021/03/08 07:34:59;;;;;;;17.80;14.57;;;10.40;99.90;;;;;;5022312;28;20972;-70
2021/03/08 07:37:25;;;;;;;19.37;16.10;;;10.40;99.90;;;;;;5021181;28;20209;-70
2021/03/08 07:39:52;;;;;;;25.00;14.70;;;10.20;99.90;;;;;;5022676;28;20189;-70
2021/03/08 07:42:18;;;;;;;18.13;15.60;;;9.80;99.90;;;;;;5019917;28;20920;-71
2021/03/08 07:44:49;;;;;;;21.53;14.47;;;9.50;99.90;;;;;;5023438;28;20454;-70
2021/03/08 07:47:17;;;;;;;19.80;15.53;;;9.50;99.90;;;;;;5010985;28;20291;-70
2021/03/08 07:49:43;;;;;;;19.60;15.67;;;9.30;99.90;;;;;;5019380;28;20459;-71
2021/03/08 07:52:14;;;;;;;18.23;14.80;;;8.80;99.90;;;;;;5021874;28;20424;-69
2021/03/08 07:55:00;;;;;;;17.97;15.20;;;8.60;99.90;;;;;;5012747;28;20260;-70
2021/03/08 07:57:27;;;;;;;18.47;14.27;;;8.10;99.90;;;;;;5021585;28;20443;-70
2021/03/08 07:59:53;;;;;;;20.03;15.47;;;8.00;99.90;;;;;;5021737;28;20789;-70
2021/03/08 08:02:19;;;;;;;19.63;15.90;;;7.80;99.90;;;;;;5020095;28;20435;-70
2021/03/08 08:04:44;;;;;;;21.50;16.13;;;7.90;99.90;;;;;;5022959;28;20204;-71
2021/03/08 08:07:13;;;;;;;23.93;16.37;;;7.60;99.90;;;;;;5019281;28;20434;-71
2021/03/08 08:09:43;;;;;;;21.70;14.53;;;7.60;99.90;;;;;;5021967;28;20268;-70
2021/03/08 08:12:16;;;;;;;21.87;15.00;;;7.50;99.90;;;;;;5019106;28;20445;-70
2021/03/08 08:14:43;;;;;;;21.23;14.27;;;7.20;99.90;;;;;;5018207;28;20529;-70
2021/03/08 08:17:16;;;;;;;17.40;15.30;;;7.30;99.90;;;;;;5019217;28;20426;-71
2021/03/08 08:19:46;;;;;;;18.47;13.97;;;7.40;99.90;;;;;;5014718;28;20446;-71
2021/03/08 08:22:19;;;;;;;15.80;13.90;;;7.20;99.90;;;;;;5022439;28;20578;-71
2021/03/08 08:24:46;;;;;;;17.93;14.77;;;7.00;99.90;;;;;;5016185;28;20948;-72
2021/03/08 08:27:12;;;;;;;20.80;14.43;;;7.30;99.90;;;;;;5008373;28;20851;-69
2021/03/08 08:29:40;;;;;;;23.10;13.83;;;7.60;99.90;;;;;;5005449;28;20905;-70
2021/03/08 08:32:07;;;;;;;19.33;13.60;;;7.80;99.90;;;;;;5016631;28;20473;-69
2021/03/08 08:34:38;;;;;;;19.53;15.27;;;7.90;99.90;;;;;;5016475;28;21023;-70
2021/03/08 08:37:14;;;;;;;15.67;12.83;;;7.70;99.90;;;;;;5012265;28;20931;-70
2021/03/08 08:40:03;;;;;;;19.70;12.90;;;7.80;99.90;;;;;;5022656;28;20425;-70
2021/03/08 08:42:29;;;;;;;15.87;13.67;;;7.70;99.90;;;;;;5020629;28;20927;-70
2021/03/08 08:44:57;;;;;;;16.50;13.07;;;7.90;99.90;;;;;;5015757;28;20859;-70
2021/03/08 08:47:24;;;;;;;17.57;13.80;;;8.50;99.90;;;;;;5020834;28;20888;-70
2021/03/08 08:49:53;;;;;;;14.33;12.00;;;8.70;99.90;;;;;;5018178;28;20480;-71
2021/03/08 08:52:55;;;;;;;15.73;13.23;;;8.80;99.90;;;;;;5019577;28;20825;-71
2021/03/08 08:55:35;;;;;;;16.03;13.43;;;9.10;99.90;;;;;;5018536;28;20883;-71
2021/03/08 08:58:22;;;;;;;19.47;13.23;;;9.20;99.90;;;;;;5019850;28;20419;-71
2021/03/08 09:01:14;;;;;;;17.20;14.20;;;9.20;99.90;;;;;;5011584;28;20501;-70
2021/03/08 09:04:07;;;;;;;15.20;13.70;;;9.20;99.90;;;;;;5023239;28;20411;-70
2021/03/08 09:06:55;;;;;;;17.10;13.50;;;9.10;99.90;;;;;;5018817;28;21019;-71
2021/03/08 09:09:23;;;;;;;18.13;13.40;;;9.40;99.90;;;;;;5021344;28;20474;-70
2021/03/08 09:11:54;;;;;;;20.53;14.73;;;9.30;99.90;;;;;;5025597;28;20410;-70
2021/03/08 09:14:27;;;;;;;27.87;14.00;;;9.00;99.90;;;;;;5020925;28;20840;-70
2021/03/08 09:17:09;;;;;;;20.33;14.30;;;9.10;99.90;;;;;;5025044;28;20422;-70
2021/03/08 09:19:35;;;;;;;16.43;14.10;;;9.30;99.90;;;;;;5024737;28;20580;-72
2021/03/08 09:22:26;;;;;;;19.67;13.27;;;9.50;99.90;;;;;;5023426;28;20548;-70
2021/03/08 09:25:10;;;;;;;19.20;14.73;;;9.80;99.90;;;;;;5020504;28;20737;-70
2021/03/08 09:27:40;;;;;;;17.13;12.83;;;9.70;99.90;;;;;;5025601;28;20789;-70
2021/03/08 09:30:06;;;;;;;21.67;14.00;;;9.70;99.90;;;;;;5022926;28;20984;-71
2021/03/08 09:32:32;;;;;;;17.67;13.63;;;9.40;99.90;;;;;;5019494;28;20433;-71
2021/03/08 09:35:07;;;;;;;16.23;12.67;;;9.50;99.90;;;;;;5025925;28;20968;-69
2021/03/08 09:37:33;;;;;;;19.23;13.70;;;9.80;99.90;;;;;;5023926;28;20427;-71
2021/03/08 09:40:01;;;;;;;17.73;14.50;;;9.60;99.90;;;;;;5020106;28;20436;-69
2021/03/08 09:42:38;;;;;;;21.20;14.40;;;9.20;99.90;;;;;;5019987;28;20431;-70
2021/03/08 09:45:18;;;;;;;18.20;13.43;;;9.40;99.90;;;;;;5024384;28;20508;-71
2021/03/08 09:47:44;;;;;;;17.53;13.37;;;9.50;99.90;;;;;;5017058;28;20435;-70
2021/03/08 09:50:10;;;;;;;15.13;13.43;;;9.80;99.90;;;;;;5020868;28;20807;-70
2021/03/08 09:52:41;;;;;;;13.90;11.50;;;9.80;99.90;;;;;;5025039;28;20428;-71
2021/03/08 09:55:15;;;;;;;17.70;12.83;;;10.00;99.90;;;;;;5022189;28;20462;-72
2021/03/08 09:57:42;;;;;;;18.73;12.63;;;10.10;99.90;;;;;;5025502;28;20426;-70
2021/03/08 10:00:12;;;;;;;17.00;13.07;;;10.30;99.90;;;;;;5022439;28;20800;-71
2021/03/08 10:02:38;;;;;;;18.23;13.40;;;10.00;99.90;;;;;;5020980;28;20451;-70
2021/03/08 10:05:07;;;;;;;15.37;12.83;;;10.00;99.90;;;;;;5016459;28;20953;-70
2021/03/08 10:07:33;;;;;;;20.60;13.87;;;9.90;99.90;;;;;;5020071;28;20429;-70
2021/03/08 10:10:13;;;;;;;17.90;12.93;;;9.80;99.90;;;;;;5022426;28;20998;-69
2021/03/08 10:12:39;;;;;;;16.93;12.80;;;10.10;99.90;;;;;;5017236;28;20209;-70
2021/03/08 10:15:07;;;;;;;16.80;12.97;;;10.20;99.90;;;;;;5021803;28;20483;-70
2021/03/08 10:17:34;;;;;;;20.17;14.10;;;10.50;99.90;;;;;;5018968;28;20489;-73
2021/03/08 10:20:04;;;;;;;14.43;12.00;;;10.10;99.90;;;;;;5020039;28;20429;-71
2021/03/08 10:22:40;;;;;;;13.53;12.03;;;10.20;99.90;;;;;;5015053;28;20487;-70
2021/03/08 10:25:26;;;;;;;15.00;11.40;;;10.70;99.90;;;;;;5016183;28;20465;-71
2021/03/08 10:28:02;;;;;;;13.67;11.03;;;10.90;99.90;;;;;;5021180;28;20478;-71
2021/03/08 10:30:30;;;;;;;13.43;11.50;;;11.00;99.90;;;;;;5023245;28;20486;-71
2021/03/08 10:33:02;;;;;;;12.37;10.57;;;11.10;99.90;;;;;;5021257;28;20486;-71
2021/03/08 10:35:33;;;;;;;15.57;12.10;;;11.60;99.90;;;;;;5015719;28;20541;-72
2021/03/08 10:38:00;;;;;;;14.33;11.23;;;11.40;99.90;;;;;;5022250;28;20798;-71
2021/03/08 10:40:26;;;;;;;13.30;11.40;;;11.50;99.90;;;;;;5016612;28;20481;-72
2021/03/08 10:42:52;;;;;;;13.50;12.10;;;11.80;99.90;;;;;;5022700;28;20805;-71
2021/03/08 10:45:19;;;;;;;14.10;12.40;;;11.70;99.30;;;;;;5022796;28;20742;-70
2021/03/08 10:48:09;;;;;;;12.37;11.03;;;11.60;99.50;;;;;;5020601;28;20917;-70
2021/03/08 10:50:52;;;;;;;13.10;9.67;;;11.10;98.40;;;;;;5018588;28;20919;-71
2021/03/08 10:53:19;;;;;;;16.57;10.80;;;10.80;97.90;;;;;;5015365;28;20458;-71
2021/03/08 10:55:46;;;;;;;12.00;10.43;;;10.70;98.50;;;;;;5023228;28;20549;-71
2021/03/08 10:58:13;;;;;;;12.27;9.17;;;10.90;99.90;;;;;;5016700;28;20465;-71
2021/03/08 11:00:39;;;;;;;10.67;8.83;;;11.20;98.60;;;;;;5020231;28;20980;-71
2021/03/08 11:03:05;;;;;;;11.90;9.97;;;11.10;97.10;;;;;;5022075;28;20447;-73
2021/03/08 11:05:32;;;;;;;12.80;10.10;;;11.50;99.10;;;;;;5017087;28;20563;-71
2021/03/08 11:07:58;;;;;;;13.23;9.43;;;11.50;97.90;;;;;;5022982;28;20177;-72
2021/03/08 11:10:35;;;;;;;15.83;10.30;;;11.40;97.80;;;;;;5019998;28;20506;-69
2021/03/08 11:13:03;;;;;;;8.93;7.93;;;11.60;98.10;;;;;;5015421;28;20190;-69
2021/03/08 11:15:28;;;;;;;12.80;7.73;;;11.80;96.70;;;;;;5020835;28;20457;-70
2021/03/08 11:17:54;;;;;;;8.60;7.80;;;12.00;96.90;;;;;;5017035;28;20493;-71
2021/03/08 11:20:24;;;;;;;10.30;7.93;;;11.50;95.40;;;;;;5023411;28;20216;-70
2021/03/08 11:23:01;;;;;;;12.37;9.17;;;11.40;97.20;;;;;;5020268;28;20453;-70
2021/03/08 11:25:34;;;;;;;9.77;8.77;;;11.10;96.50;;;;;;5021924;28;20442;-71
2021/03/08 11:28:01;;;;;;;14.40;9.63;;;10.90;97.30;;;;;;5021477;28;20550;-70
2021/03/08 11:30:28;;;;;;;10.00;8.07;;;10.70;96.50;;;;;;5021651;28;20442;-70
2021/03/08 11:32:56;;;;;;;10.50;9.40;;;10.50;97.40;;;;;;5022487;28;20428;-72
2021/03/08 11:35:25;;;;;;;12.10;9.83;;;10.90;98.30;;;;;;5021141;28;20449;-70
2021/03/08 11:37:53;;;;;;;12.13;9.23;;;10.80;97.70;;;;;;5023148;28;20428;-71
2021/03/08 11:40:21;;;;;;;11.43;10.30;;;10.90;97.90;;;;;;5020715;28;20923;-69
2021/03/08 11:42:47;;;;;;;11.93;9.30;;;11.00;98.10;;;;;;5023230;28;20519;-69
2021/03/08 11:45:13;;;;;;;11.50;9.53;;;11.00;97.20;;;;;;5017443;28;20537;-70
2021/03/08 11:47:39;;;;;;;10.00;9.00;;;10.60;96.60;;;;;;5026185;28;20186;-70
2021/03/08 11:50:06;;;;;;;11.50;9.70;;;10.20;96.80;;;;;;5021877;28;20433;-70
2021/03/08 11:52:31;;;;;;;9.20;7.50;;;10.10;96.60;;;;;;5022047;28;20180;-70
2021/03/08 11:54:57;;;;;;;11.40;6.70;;;9.80;94.40;;;;;;5021442;28;20502;-70
2021/03/08 11:57:23;;;;;;;10.40;8.40;;;9.80;95.40;;;;;;5018624;28;20196;-68
2021/03/08 11:59:48;;;;;;;9.50;8.20;;;9.90;96.40;;;;;;5024938;28;20188;-69
2021/03/08 12:02:14;;;;;;;11.57;8.23;;;9.90;97.50;;;;;;5019877;28;20483;-71
2021/03/08 12:04:39;;;;;;;12.70;9.00;;;9.90;97.50;;;;;;5021657;28;20235;-71
2021/03/08 12:07:05;;;;;;;13.93;9.80;;;9.90;97.00;;;;;;5022806;28;20611;-70
2021/03/08 12:09:33;;;;;;;14.70;9.00;;;10.10;97.00;;;;;;5024446;28;20198;-69
2021/03/08 12:11:59;;;;;;;9.90;8.30;;;10.30;96.90;;;;;;5022481;28;20178;-69
2021/03/08 12:14:26;;;;;;;10.33;8.10;;;10.30;95.00;;;;;;5021579;28;20509;-70
2021/03/08 12:16:51;;;;;;;10.60;8.30;;;10.40;94.00;;;;;;5020389;28;20480;-70
2021/03/08 12:19:17;;;;;;;10.70;8.03;;;10.30;93.30;;;;;;5022573;28;20442;-70
2021/03/08 12:21:45;;;;;;;12.60;9.67;;;10.00;94.20;;;;;;5019402;28;20287;-71
2021/03/08 12:24:11;;;;;;;10.13;9.13;;;9.70;94.50;;;;;;5022638;28;20185;-71
2021/03/08 12:26:37;;;;;;;9.67;8.73;;;9.60;96.00;;;;;;5019854;28;20531;-70
2021/03/08 12:29:02;;;;;;;13.13;9.57;;;9.30;96.50;;;;;;5021594;28;20275;-70
2021/03/08 12:31:28;;;;;;;14.40;9.77;;;9.20;95.10;;;;;;5022667;28;20184;-70
2021/03/08 12:33:54;;;;;;;11.53;8.60;;;9.20;95.50;;;;;;5022718;28;20179;-70
2021/03/08 12:36:19;;;;;;;11.47;9.20;;;9.00;96.30;;;;;;5019518;28;20831;-71
2021/03/08 12:38:45;;;;;;;12.87;9.70;;;8.70;96.50;;;;;;5010395;28;20193;-69
2021/03/08 12:41:11;;;;;;;10.33;9.27;;;8.50;96.70;;;;;;5011730;28;20223;-70
2021/03/08 12:43:36;;;;;;;10.67;9.27;;;8.70;98.20;;;;;;5018372;28;20191;-70
2021/03/08 12:46:02;;;;;;;12.43;8.50;;;8.80;97.50;;;;;;5017496;28;20280;-70
2021/03/08 12:48:28;;;;;;;13.40;9.10;;;8.90;96.60;;;;;;5019165;28;20261;-70